sensor_id;sensor_type;location;lat;lon;timestamp;P1;durP1;ratioP1;P2;durP2;ratioP2
3337;SDS011;1682;49.286;10.788;2023-08-24T00:00:53;6.47;;;4.80;;
3337;SDS011;1682;49.286;10.788;2023-08-24T00:03:40;5.27;;;4.87;;
3337;SDS011;1682;49.286;10.788;2023-08-24T00:06:28;5.70;;;5.20;;
3337;SDS011;1682;49.286;10.788;2023-08-24T00:09:15;6.20;;;5.40;;
3337;SDS011;1682;49.286;10.788;2023-08-24T00:12:05;6.30;;;5.17;;
3337;SDS011;1682;49.286;10.788;2023-08-24T00:14:52;5.77;;;5.37;;
3337;SDS011;1682;49.286;10.788;2023-08-24T00:17:40;6.07;;;5.50;;
3337;SDS011;1682;49.286;10.788;2023-08-24T00:20:27;6.43;;;5.80;;
3337;SDS011;1682;49.286;10.788;2023-08-24T00:23:16;5.63;;;5.17;;
3337;SDS011;1682;49.286;10.788;2023-08-24T00:26:04;5.93;;;5.17;;
3337;SDS011;1682;49.286;10.788;2023-08-24T00:28:53;6.30;;;5.07;;
3337;SDS011;1682;49.286;10.788;2023-08-24T00:31:40;6.10;;;5.30;;
3337;SDS011;1682;49.286;10.788;2023-08-24T00:34:28;6.03;;;5.30;;
3337;SDS011;1682;49.286;10.788;2023-08-24T00:37:15;5.53;;;5.03;;
3337;SDS011;1682;49.286;10.788;2023-08-24T00:40:04;8.40;;;5.10;;
3337;SDS011;1682;49.286;10.788;2023-08-24T00:42:55;6.40;;;5.50;;
3337;SDS011;1682;49.286;10.788;2023-08-24T00:45:44;5.63;;;5.23;;
3337;SDS011;1682;49.286;10.788;2023-08-24T00:48:31;6.30;;;5.73;;
3337;SDS011;1682;49.286;10.788;2023-08-24T00:51:19;5.57;;;5.07;;
3337;SDS011;1682;49.286;10.788;2023-08-24T00:54:06;5.33;;;4.93;;
3337;SDS011;1682;49.286;10.788;2023-08-24T00:56:54;5.53;;;5.03;;
3337;SDS011;1682;49.286;10.788;2023-08-24T00:59:42;7.07;;;5.70;;
3337;SDS011;1682;49.286;10.788;2023-08-24T01:02:31;5.33;;;5.00;;
3337;SDS011;1682;49.286;10.788;2023-08-24T01:05:18;5.73;;;5.33;;
3337;SDS011;1682;49.286;10.788;2023-08-24T01:08:06;5.53;;;5.13;;
3337;SDS011;1682;49.286;10.788;2023-08-24T01:10:57;6.43;;;5.93;;
3337;SDS011;1682;49.286;10.788;2023-08-24T01:13:45;8.10;;;5.10;;
3337;SDS011;1682;49.286;10.788;2023-08-24T01:16:34;5.77;;;5.37;;
3337;SDS011;1682;49.286;10.788;2023-08-24T01:19:30;5.57;;;5.07;;
3337;SDS011;1682;49.286;10.788;2023-08-24T01:22:25;5.77;;;5.37;;
3337;SDS011;1682;49.286;10.788;2023-08-24T01:25:20;6.47;;;6.03;;
3337;SDS011;1682;49.286;10.788;2023-08-24T01:28:12;6.10;;;5.50;;
3337;SDS011;1682;49.286;10.788;2023-08-24T01:31:00;8.23;;;7.03;;
3337;SDS011;1682;49.286;10.788;2023-08-24T01:33:48;7.47;;;6.90;;
3337;SDS011;1682;49.286;10.788;2023-08-24T01:36:35;8.17;;;7.50;;
3337;SDS011;1682;49.286;10.788;2023-08-24T01:39:25;8.50;;;7.90;;
3337;SDS011;1682;49.286;10.788;2023-08-24T01:42:17;6.47;;;5.87;;
3337;SDS011;1682;49.286;10.788;2023-08-24T01:45:07;6.40;;;5.80;;
3337;SDS011;1682;49.286;10.788;2023-08-24T01:47:55;7.50;;;6.90;;
3337;SDS011;1682;49.286;10.788;2023-08-24T01:50:43;7.73;;;6.93;;
3337;SDS011;1682;49.286;10.788;2023-08-24T01:53:31;7.90;;;7.03;;
3337;SDS011;1682;49.286;10.788;2023-08-24T01:56:19;9.30;;;6.43;;
3337;SDS011;1682;49.286;10.788;2023-08-24T01:59:07;6.77;;;6.20;;
3337;SDS011;1682;49.286;10.788;2023-08-24T02:01:56;7.63;;;7.03;;
3337;SDS011;1682;49.286;10.788;2023-08-24T02:04:43;5.80;;;5.30;;
3337;SDS011;1682;49.286;10.788;2023-08-24T02:07:31;6.47;;;5.83;;
3337;SDS011;1682;49.286;10.788;2023-08-24T02:10:18;6.00;;;5.50;;
3337;SDS011;1682;49.286;10.788;2023-08-24T02:13:06;5.73;;;5.30;;
3337;SDS011;1682;49.286;10.788;2023-08-24T02:16:00;5.60;;;5.07;;
3337;SDS011;1682;49.286;10.788;2023-08-24T02:18:49;5.07;;;4.73;;
3337;SDS011;1682;49.286;10.788;2023-08-24T02:21:37;5.67;;;5.27;;
3337;SDS011;1682;49.286;10.788;2023-08-24T02:24:24;6.03;;;5.67;;
3337;SDS011;1682;49.286;10.788;2023-08-24T02:27:12;6.60;;;6.10;;
3337;SDS011;1682;49.286;10.788;2023-08-24T02:29:59;6.87;;;6.23;;
3337;SDS011;1682;49.286;10.788;2023-08-24T02:32:47;6.47;;;6.03;;
3337;SDS011;1682;49.286;10.788;2023-08-24T02:35:36;8.33;;;7.63;;
3337;SDS011;1682;49.286;10.788;2023-08-24T02:38:23;7.63;;;6.70;;
3337;SDS011;1682;49.286;10.788;2023-08-24T02:41:11;7.83;;;7.13;;
3337;SDS011;1682;49.286;10.788;2023-08-24T02:43:59;7.40;;;6.80;;
3337;SDS011;1682;49.286;10.788;2023-08-24T02:46:47;6.93;;;6.33;;
3337;SDS011;1682;49.286;10.788;2023-08-24T02:49:35;7.47;;;6.80;;
3337;SDS011;1682;49.286;10.788;2023-08-24T02:52:24;7.87;;;7.03;;
3337;SDS011;1682;49.286;10.788;2023-08-24T02:55:11;7.57;;;6.97;;
3337;SDS011;1682;49.286;10.788;2023-08-24T02:57:59;7.70;;;7.00;;
3337;SDS011;1682;49.286;10.788;2023-08-24T03:00:46;7.10;;;6.50;;
3337;SDS011;1682;49.286;10.788;2023-08-24T03:03:34;6.87;;;6.30;;
3337;SDS011;1682;49.286;10.788;2023-08-24T03:06:21;6.70;;;6.20;;
3337;SDS011;1682;49.286;10.788;2023-08-24T03:09:11;6.60;;;6.00;;
3337;SDS011;1682;49.286;10.788;2023-08-24T03:11:59;6.27;;;5.83;;
3337;SDS011;1682;49.286;10.788;2023-08-24T03:14:46;6.27;;;5.77;;
3337;SDS011;1682;49.286;10.788;2023-08-24T03:17:33;5.17;;;4.80;;
3337;SDS011;1682;49.286;10.788;2023-08-24T03:20:21;7.07;;;6.53;;
3337;SDS011;1682;49.286;10.788;2023-08-24T03:23:08;5.90;;;5.37;;
3337;SDS011;1682;49.286;10.788;2023-08-24T03:25:57;7.13;;;6.40;;
3337;SDS011;1682;49.286;10.788;2023-08-24T03:28:45;6.33;;;4.60;;
3337;SDS011;1682;49.286;10.788;2023-08-24T03:31:32;5.70;;;5.30;;
3337;SDS011;1682;49.286;10.788;2023-08-24T03:34:20;5.73;;;5.33;;
3337;SDS011;1682;49.286;10.788;2023-08-24T03:37:07;6.10;;;5.50;;
3337;SDS011;1682;49.286;10.788;2023-08-24T03:39:55;6.63;;;6.03;;
3337;SDS011;1682;49.286;10.788;2023-08-24T03:42:43;7.57;;;6.97;;
3337;SDS011;1682;49.286;10.788;2023-08-24T03:45:31;6.07;;;5.57;;
3337;SDS011;1682;49.286;10.788;2023-08-24T03:48:18;7.17;;;6.67;;
3337;SDS011;1682;49.286;10.788;2023-08-24T03:51:06;6.83;;;6.20;;
3337;SDS011;1682;49.286;10.788;2023-08-24T03:53:53;6.60;;;6.10;;
3337;SDS011;1682;49.286;10.788;2023-08-24T03:56:41;6.57;;;5.93;;
3337;SDS011;1682;49.286;10.788;2023-08-24T03:59:30;7.33;;;6.60;;
3337;SDS011;1682;49.286;10.788;2023-08-24T04:02:17;11.40;;;6.90;;
3337;SDS011;1682;49.286;10.788;2023-08-24T04:05:05;7.63;;;7.13;;
3337;SDS011;1682;49.286;10.788;2023-08-24T04:07:52;9.47;;;7.03;;
3337;SDS011;1682;49.286;10.788;2023-08-24T04:10:40;7.00;;;6.40;;
3337;SDS011;1682;49.286;10.788;2023-08-24T04:13:27;7.23;;;6.63;;
3337;SDS011;1682;49.286;10.788;2023-08-24T04:16:16;6.67;;;6.23;;
3337;SDS011;1682;49.286;10.788;2023-08-24T04:19:03;16.43;;;7.00;;
3337;SDS011;1682;49.286;10.788;2023-08-24T04:21:51;6.20;;;5.80;;
3337;SDS011;1682;49.286;10.788;2023-08-24T04:24:38;7.83;;;7.23;;
3337;SDS011;1682;49.286;10.788;2023-08-24T04:27:26;8.00;;;7.13;;
3337;SDS011;1682;49.286;10.788;2023-08-24T04:30:13;6.80;;;6.40;;
3337;SDS011;1682;49.286;10.788;2023-08-24T04:33:02;7.53;;;7.03;;
3337;SDS011;1682;49.286;10.788;2023-08-24T04:35:50;7.63;;;7.03;;
3337;SDS011;1682;49.286;10.788;2023-08-24T04:38:38;6.87;;;6.27;;
3337;SDS011;1682;49.286;10.788;2023-08-24T04:41:26;7.23;;;6.63;;
3337;SDS011;1682;49.286;10.788;2023-08-24T04:44:14;7.47;;;6.87;;
3337;SDS011;1682;49.286;10.788;2023-08-24T04:47:01;7.07;;;6.57;;
3337;SDS011;1682;49.286;10.788;2023-08-24T04:49:50;7.53;;;6.80;;
3337;SDS011;1682;49.286;10.788;2023-08-24T04:52:38;7.00;;;6.30;;
3337;SDS011;1682;49.286;10.788;2023-08-24T04:55:26;10.90;;;6.80;;
3337;SDS011;1682;49.286;10.788;2023-08-24T04:58:13;7.20;;;6.70;;
3337;SDS011;1682;49.286;10.788;2023-08-24T05:01:01;9.03;;;8.23;;
3337;SDS011;1682;49.286;10.788;2023-08-24T05:03:49;9.70;;;8.80;;
3337;SDS011;1682;49.286;10.788;2023-08-24T05:06:39;7.57;;;7.00;;
3337;SDS011;1682;49.286;10.788;2023-08-24T05:09:26;9.60;;;8.10;;
3337;SDS011;1682;49.286;10.788;2023-08-24T05:12:14;8.20;;;7.53;;
3337;SDS011;1682;49.286;10.788;2023-08-24T05:15:01;7.67;;;7.10;;
3337;SDS011;1682;49.286;10.788;2023-08-24T05:17:49;8.13;;;7.03;;
3337;SDS011;1682;49.286;10.788;2023-08-24T05:20:39;7.20;;;6.70;;
3337;SDS011;1682;49.286;10.788;2023-08-24T05:23:28;14.37;;;8.13;;
3337;SDS011;1682;49.286;10.788;2023-08-24T05:26:15;7.93;;;7.33;;
3337;SDS011;1682;49.286;10.788;2023-08-24T05:29:07;7.00;;;6.30;;
3337;SDS011;1682;49.286;10.788;2023-08-24T05:31:55;6.80;;;6.40;;
3337;SDS011;1682;49.286;10.788;2023-08-24T05:34:42;7.43;;;6.87;;
3337;SDS011;1682;49.286;10.788;2023-08-24T05:37:30;7.70;;;6.50;;
3337;SDS011;1682;49.286;10.788;2023-08-24T05:40:19;7.07;;;6.47;;
3337;SDS011;1682;49.286;10.788;2023-08-24T05:43:06;8.43;;;6.50;;
3337;SDS011;1682;49.286;10.788;2023-08-24T05:45:54;6.57;;;5.97;;
3337;SDS011;1682;49.286;10.788;2023-08-24T05:48:41;5.97;;;5.57;;
3337;SDS011;1682;49.286;10.788;2023-08-24T05:51:29;11.70;;;10.63;;
3337;SDS011;1682;49.286;10.788;2023-08-24T05:54:16;11.23;;;10.23;;
3337;SDS011;1682;49.286;10.788;2023-08-24T05:57:05;10.60;;;8.67;;
3337;SDS011;1682;49.286;10.788;2023-08-24T05:59:53;8.70;;;7.90;;
3337;SDS011;1682;49.286;10.788;2023-08-24T06:02:40;9.10;;;8.20;;
3337;SDS011;1682;49.286;10.788;2023-08-24T06:05:29;8.17;;;7.47;;
3337;SDS011;1682;49.286;10.788;2023-08-24T06:08:16;8.17;;;7.37;;
3337;SDS011;1682;49.286;10.788;2023-08-24T06:11:04;9.77;;;8.87;;
3337;SDS011;1682;49.286;10.788;2023-08-24T06:13:53;9.70;;;8.80;;
3337;SDS011;1682;49.286;10.788;2023-08-24T06:16:41;8.73;;;7.80;;
3337;SDS011;1682;49.286;10.788;2023-08-24T06:19:28;7.70;;;7.00;;
3337;SDS011;1682;49.286;10.788;2023-08-24T06:22:16;8.60;;;7.80;;
3337;SDS011;1682;49.286;10.788;2023-08-24T06:25:03;8.90;;;7.90;;
3337;SDS011;1682;49.286;10.788;2023-08-24T06:27:54;9.97;;;9.17;;
3337;SDS011;1682;49.286;10.788;2023-08-24T06:30:43;9.00;;;8.30;;
3337;SDS011;1682;49.286;10.788;2023-08-24T06:33:32;10.57;;;9.50;;
3337;SDS011;1682;49.286;10.788;2023-08-24T06:36:20;11.93;;;10.83;;
3337;SDS011;1682;49.286;10.788;2023-08-24T06:39:07;9.27;;;8.43;;
3337;SDS011;1682;49.286;10.788;2023-08-24T06:41:55;10.43;;;9.43;;
3337;SDS011;1682;49.286;10.788;2023-08-24T06:44:42;14.07;;;11.83;;
3337;SDS011;1682;49.286;10.788;2023-08-24T06:47:31;22.57;;;14.40;;
3337;SDS011;1682;49.286;10.788;2023-08-24T06:50:19;9.70;;;8.80;;
3337;SDS011;1682;49.286;10.788;2023-08-24T06:53:06;17.93;;;12.50;;
3337;SDS011;1682;49.286;10.788;2023-08-24T06:55:54;8.47;;;7.77;;
3337;SDS011;1682;49.286;10.788;2023-08-24T06:58:42;8.70;;;8.00;;
3337;SDS011;1682;49.286;10.788;2023-08-24T07:01:29;8.43;;;7.83;;
3337;SDS011;1682;49.286;10.788;2023-08-24T07:04:18;11.30;;;10.10;;
3337;SDS011;1682;49.286;10.788;2023-08-24T07:07:06;10.30;;;9.47;;
3337;SDS011;1682;49.286;10.788;2023-08-24T07:09:53;9.20;;;8.30;;
3337;SDS011;1682;49.286;10.788;2023-08-24T07:12:41;10.57;;;9.47;;
3337;SDS011;1682;49.286;10.788;2023-08-24T07:15:30;8.90;;;8.00;;
3337;SDS011;1682;49.286;10.788;2023-08-24T07:18:19;9.37;;;8.50;;
3337;SDS011;1682;49.286;10.788;2023-08-24T07:21:08;8.97;;;7.57;;
3337;SDS011;1682;49.286;10.788;2023-08-24T07:23:56;8.67;;;7.90;;
3337;SDS011;1682;49.286;10.788;2023-08-24T07:26:43;8.53;;;7.67;;
3337;SDS011;1682;49.286;10.788;2023-08-24T07:29:31;7.00;;;6.40;;
3337;SDS011;1682;49.286;10.788;2023-08-24T07:32:19;7.73;;;7.03;;
3337;SDS011;1682;49.286;10.788;2023-08-24T07:35:07;8.07;;;7.30;;
3337;SDS011;1682;49.286;10.788;2023-08-24T07:37:55;7.13;;;6.63;;
3337;SDS011;1682;49.286;10.788;2023-08-24T07:40:44;8.90;;;8.20;;
3337;SDS011;1682;49.286;10.788;2023-08-24T07:43:31;12.80;;;7.30;;
3337;SDS011;1682;49.286;10.788;2023-08-24T07:46:19;9.67;;;8.60;;
3337;SDS011;1682;49.286;10.788;2023-08-24T07:49:06;8.87;;;8.17;;
3337;SDS011;1682;49.286;10.788;2023-08-24T07:51:54;7.23;;;6.63;;
3337;SDS011;1682;49.286;10.788;2023-08-24T07:54:44;9.90;;;8.67;;
3337;SDS011;1682;49.286;10.788;2023-08-24T07:57:31;11.67;;;8.13;;
3337;SDS011;1682;49.286;10.788;2023-08-24T08:00:19;9.30;;;8.40;;
3337;SDS011;1682;49.286;10.788;2023-08-24T08:03:06;7.17;;;6.60;;
3337;SDS011;1682;49.286;10.788;2023-08-24T08:05:54;8.80;;;8.00;;
3337;SDS011;1682;49.286;10.788;2023-08-24T08:08:41;12.50;;;7.97;;
3337;SDS011;1682;49.286;10.788;2023-08-24T08:11:31;7.27;;;5.97;;
3337;SDS011;1682;49.286;10.788;2023-08-24T08:14:19;7.43;;;6.57;;
3337;SDS011;1682;49.286;10.788;2023-08-24T08:17:06;6.27;;;5.77;;
3337;SDS011;1682;49.286;10.788;2023-08-24T08:19:54;6.80;;;6.03;;
3337;SDS011;1682;49.286;10.788;2023-08-24T08:22:41;6.20;;;5.40;;
3337;SDS011;1682;49.286;10.788;2023-08-24T08:25:29;7.43;;;6.10;;
3337;SDS011;1682;49.286;10.788;2023-08-24T08:28:18;6.70;;;6.20;;
3337;SDS011;1682;49.286;10.788;2023-08-24T08:31:05;7.27;;;6.57;;
3337;SDS011;1682;49.286;10.788;2023-08-24T08:33:53;7.00;;;6.40;;
3337;SDS011;1682;49.286;10.788;2023-08-24T08:36:40;6.67;;;6.27;;
3337;SDS011;1682;49.286;10.788;2023-08-24T08:39:28;6.03;;;5.43;;
3337;SDS011;1682;49.286;10.788;2023-08-24T08:42:15;6.73;;;6.17;;
3337;SDS011;1682;49.286;10.788;2023-08-24T08:45:08;8.30;;;5.80;;
3337;SDS011;1682;49.286;10.788;2023-08-24T08:47:57;5.40;;;5.10;;
3337;SDS011;1682;49.286;10.788;2023-08-24T08:50:50;5.00;;;4.70;;
3337;SDS011;1682;49.286;10.788;2023-08-24T08:53:38;5.30;;;5.00;;
3337;SDS011;1682;49.286;10.788;2023-08-24T08:56:26;4.97;;;4.67;;
3337;SDS011;1682;49.286;10.788;2023-08-24T08:59:14;5.00;;;4.60;;
3337;SDS011;1682;49.286;10.788;2023-08-24T09:02:03;5.23;;;4.83;;
3337;SDS011;1682;49.286;10.788;2023-08-24T09:04:50;4.87;;;4.57;;
3337;SDS011;1682;49.286;10.788;2023-08-24T09:07:39;5.10;;;4.80;;
3337;SDS011;1682;49.286;10.788;2023-08-24T09:10:27;6.33;;;4.53;;
3337;SDS011;1682;49.286;10.788;2023-08-24T09:13:14;7.23;;;5.37;;
3337;SDS011;1682;49.286;10.788;2023-08-24T09:16:05;5.30;;;4.80;;
3337;SDS011;1682;49.286;10.788;2023-08-24T09:18:54;4.43;;;4.03;;
3337;SDS011;1682;49.286;10.788;2023-08-24T09:21:42;4.63;;;4.20;;
3337;SDS011;1682;49.286;10.788;2023-08-24T09:24:29;8.93;;;4.50;;
3337;SDS011;1682;49.286;10.788;2023-08-24T09:27:18;6.00;;;4.80;;
3337;SDS011;1682;49.286;10.788;2023-08-24T09:30:06;6.40;;;4.47;;
3337;SDS011;1682;49.286;10.788;2023-08-24T09:32:54;6.07;;;5.67;;
3337;SDS011;1682;49.286;10.788;2023-08-24T09:35:43;4.97;;;4.50;;
3337;SDS011;1682;49.286;10.788;2023-08-24T09:38:30;8.50;;;4.50;;
3337;SDS011;1682;49.286;10.788;2023-08-24T09:41:18;4.07;;;3.77;;
3337;SDS011;1682;49.286;10.788;2023-08-24T09:44:05;4.83;;;4.43;;
3337;SDS011;1682;49.286;10.788;2023-08-24T09:46:53;4.10;;;3.90;;
3337;SDS011;1682;49.286;10.788;2023-08-24T09:49:41;3.70;;;3.40;;
3337;SDS011;1682;49.286;10.788;2023-08-24T09:52:30;6.00;;;5.50;;
3337;SDS011;1682;49.286;10.788;2023-08-24T09:55:19;5.80;;;5.40;;
3337;SDS011;1682;49.286;10.788;2023-08-24T09:58:08;5.97;;;3.97;;
3337;SDS011;1682;49.286;10.788;2023-08-24T10:00:56;6.60;;;4.40;;
3337;SDS011;1682;49.286;10.788;2023-08-24T10:03:44;4.87;;;4.57;;
3337;SDS011;1682;49.286;10.788;2023-08-24T10:06:33;4.53;;;4.13;;
3337;SDS011;1682;49.286;10.788;2023-08-24T10:09:25;4.83;;;4.43;;
3337;SDS011;1682;49.286;10.788;2023-08-24T10:12:14;5.33;;;4.83;;
3337;SDS011;1682;49.286;10.788;2023-08-24T10:15:02;4.43;;;4.10;;
3337;SDS011;1682;49.286;10.788;2023-08-24T10:17:52;5.40;;;5.00;;
3337;SDS011;1682;49.286;10.788;2023-08-24T10:20:41;5.10;;;4.80;;
3337;SDS011;1682;49.286;10.788;2023-08-24T10:23:29;6.10;;;4.00;;
3337;SDS011;1682;49.286;10.788;2023-08-24T10:26:19;4.80;;;4.40;;
3337;SDS011;1682;49.286;10.788;2023-08-24T10:29:07;5.63;;;5.23;;
3337;SDS011;1682;49.286;10.788;2023-08-24T10:31:54;4.93;;;4.53;;
3337;SDS011;1682;49.286;10.788;2023-08-24T10:34:42;5.30;;;4.80;;
3337;SDS011;1682;49.286;10.788;2023-08-24T10:37:30;5.73;;;5.23;;
3337;SDS011;1682;49.286;10.788;2023-08-24T10:40:30;5.40;;;5.10;;
3337;SDS011;1682;49.286;10.788;2023-08-24T10:43:19;7.40;;;5.00;;
3337;SDS011;1682;49.286;10.788;2023-08-24T10:46:11;5.20;;;4.70;;
3337;SDS011;1682;49.286;10.788;2023-08-24T10:48:59;5.03;;;4.73;;
3337;SDS011;1682;49.286;10.788;2023-08-24T10:51:47;8.27;;;5.37;;
3337;SDS011;1682;49.286;10.788;2023-08-24T10:54:34;7.27;;;6.50;;
3337;SDS011;1682;49.286;10.788;2023-08-24T10:57:36;7.00;;;4.90;;
3337;SDS011;1682;49.286;10.788;2023-08-24T11:00:28;4.10;;;3.80;;
3337;SDS011;1682;49.286;10.788;2023-08-24T11:03:24;5.70;;;5.00;;
3337;SDS011;1682;49.286;10.788;2023-08-24T11:06:18;5.43;;;5.03;;
3337;SDS011;1682;49.286;10.788;2023-08-24T11:09:07;4.80;;;4.40;;
3337;SDS011;1682;49.286;10.788;2023-08-24T11:11:59;10.63;;;8.20;;
3337;SDS011;1682;49.286;10.788;2023-08-24T11:14:50;4.97;;;4.40;;
3337;SDS011;1682;49.286;10.788;2023-08-24T11:17:41;7.73;;;5.30;;
3337;SDS011;1682;49.286;10.788;2023-08-24T11:20:28;4.77;;;4.47;;
3337;SDS011;1682;49.286;10.788;2023-08-24T11:23:16;5.03;;;4.60;;
3337;SDS011;1682;49.286;10.788;2023-08-24T11:26:04;4.90;;;4.50;;
3337;SDS011;1682;49.286;10.788;2023-08-24T11:28:53;5.97;;;5.47;;
3337;SDS011;1682;49.286;10.788;2023-08-24T11:31:43;5.40;;;4.93;;
3337;SDS011;1682;49.286;10.788;2023-08-24T11:34:32;5.07;;;3.90;;
3337;SDS011;1682;49.286;10.788;2023-08-24T11:37:21;4.40;;;4.10;;
3337;SDS011;1682;49.286;10.788;2023-08-24T11:40:16;5.13;;;4.70;;
3337;SDS011;1682;49.286;10.788;2023-08-24T11:43:04;5.40;;;4.90;;
3337;SDS011;1682;49.286;10.788;2023-08-24T11:45:53;4.90;;;4.50;;
3337;SDS011;1682;49.286;10.788;2023-08-24T11:48:40;6.70;;;5.03;;
3337;SDS011;1682;49.286;10.788;2023-08-24T11:51:29;6.43;;;5.63;;
3337;SDS011;1682;49.286;10.788;2023-08-24T11:54:18;11.60;;;6.60;;
3337;SDS011;1682;49.286;10.788;2023-08-24T11:57:06;3.33;;;3.13;;
3337;SDS011;1682;49.286;10.788;2023-08-24T11:59:54;5.40;;;4.40;;
3337;SDS011;1682;49.286;10.788;2023-08-24T12:02:42;9.60;;;6.60;;
3337;SDS011;1682;49.286;10.788;2023-08-24T12:05:29;5.50;;;4.95;;
3337;SDS011;1682;49.286;10.788;2023-08-24T12:08:18;3.70;;;3.30;;
3337;SDS011;1682;49.286;10.788;2023-08-24T12:11:09;3.25;;;3.00;;
3337;SDS011;1682;49.286;10.788;2023-08-24T12:13:57;3.70;;;3.40;;
3337;SDS011;1682;49.286;10.788;2023-08-24T12:16:44;3.10;;;2.90;;
3337;SDS011;1682;49.286;10.788;2023-08-24T12:19:32;3.78;;;3.47;;
3337;SDS011;1682;49.286;10.788;2023-08-24T12:22:19;4.60;;;2.83;;
3337;SDS011;1682;49.286;10.788;2023-08-24T12:25:08;3.25;;;2.95;;
3337;SDS011;1682;49.286;10.788;2023-08-24T12:28:07;6.38;;;3.30;;
3337;SDS011;1682;49.286;10.788;2023-08-24T12:30:55;3.58;;;3.30;;
3337;SDS011;1682;49.286;10.788;2023-08-24T12:33:45;3.17;;;2.90;;
3337;SDS011;1682;49.286;10.788;2023-08-24T12:36:33;4.30;;;3.20;;
3337;SDS011;1682;49.286;10.788;2023-08-24T12:39:21;4.78;;;4.38;;
3337;SDS011;1682;49.286;10.788;2023-08-24T12:42:11;5.70;;;4.40;;
3337;SDS011;1682;49.286;10.788;2023-08-24T12:44:58;2.30;;;2.20;;
3337;SDS011;1682;49.286;10.788;2023-08-24T12:47:46;2.60;;;2.50;;
3337;SDS011;1682;49.286;10.788;2023-08-24T12:50:33;4.00;;;2.97;;
3337;SDS011;1682;49.286;10.788;2023-08-24T12:53:21;3.10;;;2.80;;
3337;SDS011;1682;49.286;10.788;2023-08-24T12:56:08;2.80;;;2.60;;
3337;SDS011;1682;49.286;10.788;2023-08-24T12:58:57;2.85;;;2.38;;
3337;SDS011;1682;49.286;10.788;2023-08-24T13:01:45;4.35;;;2.92;;
3337;SDS011;1682;49.286;10.788;2023-08-24T13:04:33;2.72;;;2.53;;
3337;SDS011;1682;49.286;10.788;2023-08-24T13:07:20;7.80;;;2.97;;
3337;SDS011;1682;49.286;10.788;2023-08-24T13:10:08;3.95;;;3.67;;
3337;SDS011;1682;49.286;10.788;2023-08-24T13:12:57;3.05;;;2.78;;
3337;SDS011;1682;49.286;10.788;2023-08-24T13:15:48;5.97;;;3.17;;
3337;SDS011;1682;49.286;10.788;2023-08-24T13:18:35;3.33;;;3.00;;
3337;SDS011;1682;49.286;10.788;2023-08-24T13:21:24;4.00;;;3.30;;
3337;SDS011;1682;49.286;10.788;2023-08-24T13:24:12;4.15;;;3.55;;
3337;SDS011;1682;49.286;10.788;2023-08-24T13:26:59;4.28;;;3.97;;
3337;SDS011;1682;49.286;10.788;2023-08-24T13:29:47;3.15;;;2.90;;
3337;SDS011;1682;49.286;10.788;2023-08-24T13:32:36;4.35;;;2.78;;
3337;SDS011;1682;49.286;10.788;2023-08-24T13:35:24;5.90;;;3.33;;
3337;SDS011;1682;49.286;10.788;2023-08-24T13:38:12;3.03;;;2.83;;
3337;SDS011;1682;49.286;10.788;2023-08-24T13:40:59;3.30;;;3.03;;
3337;SDS011;1682;49.286;10.788;2023-08-24T13:43:47;3.60;;;3.20;;
3337;SDS011;1682;49.286;10.788;2023-08-24T13:46:34;4.88;;;3.65;;
3337;SDS011;1682;49.286;10.788;2023-08-24T13:49:23;3.88;;;3.58;;
3337;SDS011;1682;49.286;10.788;2023-08-24T13:52:11;5.07;;;4.78;;
3337;SDS011;1682;49.286;10.788;2023-08-24T13:54:58;3.47;;;3.13;;
3337;SDS011;1682;49.286;10.788;2023-08-24T13:57:48;3.17;;;2.97;;
3337;SDS011;1682;49.286;10.788;2023-08-24T14:00:36;2.80;;;2.67;;
3337;SDS011;1682;49.286;10.788;2023-08-24T14:03:23;4.00;;;3.65;;
3337;SDS011;1682;49.286;10.788;2023-08-24T14:06:12;3.90;;;3.50;;
3337;SDS011;1682;49.286;10.788;2023-08-24T14:09:00;5.95;;;3.10;;
3337;SDS011;1682;49.286;10.788;2023-08-24T14:11:48;5.55;;;3.50;;
3337;SDS011;1682;49.286;10.788;2023-08-24T14:14:36;3.83;;;3.30;;
3337;SDS011;1682;49.286;10.788;2023-08-24T14:17:23;3.20;;;2.90;;
3337;SDS011;1682;49.286;10.788;2023-08-24T14:20:11;4.32;;;3.72;;
3337;SDS011;1682;49.286;10.788;2023-08-24T14:23:01;5.10;;;4.60;;
3337;SDS011;1682;49.286;10.788;2023-08-24T14:25:48;3.67;;;3.40;;
3337;SDS011;1682;49.286;10.788;2023-08-24T14:28:48;3.95;;;3.65;;
3337;SDS011;1682;49.286;10.788;2023-08-24T14:31:36;2.72;;;2.53;;
3337;SDS011;1682;49.286;10.788;2023-08-24T14:34:23;4.07;;;2.80;;
3337;SDS011;1682;49.286;10.788;2023-08-24T14:37:11;2.95;;;2.75;;
3337;SDS011;1682;49.286;10.788;2023-08-24T14:40:00;3.00;;;2.80;;
3337;SDS011;1682;49.286;10.788;2023-08-24T14:42:49;4.00;;;2.75;;
3337;SDS011;1682;49.286;10.788;2023-08-24T14:45:36;2.88;;;2.65;;
3337;SDS011;1682;49.286;10.788;2023-08-24T14:48:24;2.88;;;2.28;;
3337;SDS011;1682;49.286;10.788;2023-08-24T14:51:11;2.75;;;2.55;;
3337;SDS011;1682;49.286;10.788;2023-08-24T14:53:59;3.10;;;2.90;;
3337;SDS011;1682;49.286;10.788;2023-08-24T14:56:48;2.70;;;2.60;;
3337;SDS011;1682;49.286;10.788;2023-08-24T14:59:35;3.53;;;2.90;;
3337;SDS011;1682;49.286;10.788;2023-08-24T15:02:23;4.15;;;3.25;;
3337;SDS011;1682;49.286;10.788;2023-08-24T15:05:10;3.33;;;3.10;;
3337;SDS011;1682;49.286;10.788;2023-08-24T15:07:58;3.17;;;2.97;;
3337;SDS011;1682;49.286;10.788;2023-08-24T15:10:45;6.20;;;4.22;;
3337;SDS011;1682;49.286;10.788;2023-08-24T15:13:34;6.37;;;5.77;;
3337;SDS011;1682;49.286;10.788;2023-08-24T15:16:22;4.63;;;4.22;;
3337;SDS011;1682;49.286;10.788;2023-08-24T15:19:09;6.55;;;3.13;;
3337;SDS011;1682;49.286;10.788;2023-08-24T15:21:57;3.60;;;3.30;;
3337;SDS011;1682;49.286;10.788;2023-08-24T15:24:44;4.45;;;4.13;;
3337;SDS011;1682;49.286;10.788;2023-08-24T15:27:32;3.33;;;3.13;;
3337;SDS011;1682;49.286;10.788;2023-08-24T15:30:21;5.00;;;3.85;;
3337;SDS011;1682;49.286;10.788;2023-08-24T15:33:08;3.78;;;3.42;;
3337;SDS011;1682;49.286;10.788;2023-08-24T15:35:56;4.35;;;3.42;;
3337;SDS011;1682;49.286;10.788;2023-08-24T15:38:43;4.68;;;3.83;;
3337;SDS011;1682;49.286;10.788;2023-08-24T15:41:31;4.70;;;4.30;;
3337;SDS011;1682;49.286;10.788;2023-08-24T15:44:18;4.32;;;3.70;;
3337;SDS011;1682;49.286;10.788;2023-08-24T15:47:07;5.47;;;3.93;;
3337;SDS011;1682;49.286;10.788;2023-08-24T15:49:54;3.80;;;3.60;;
3337;SDS011;1682;49.286;10.788;2023-08-24T15:52:42;4.43;;;3.90;;
3337;SDS011;1682;49.286;10.788;2023-08-24T15:55:30;4.30;;;4.00;;
3337;SDS011;1682;49.286;10.788;2023-08-24T15:58:17;4.63;;;4.23;;
3337;SDS011;1682;49.286;10.788;2023-08-24T16:01:05;4.33;;;3.73;;
3337;SDS011;1682;49.286;10.788;2023-08-24T16:03:54;6.50;;;4.07;;
3337;SDS011;1682;49.286;10.788;2023-08-24T16:06:41;8.40;;;4.10;;
3337;SDS011;1682;49.286;10.788;2023-08-24T16:09:29;3.90;;;3.70;;
3337;SDS011;1682;49.286;10.788;2023-08-24T16:12:17;4.20;;;3.90;;
3337;SDS011;1682;49.286;10.788;2023-08-24T16:15:05;5.13;;;4.63;;
3337;SDS011;1682;49.286;10.788;2023-08-24T16:17:52;4.70;;;4.30;;
3337;SDS011;1682;49.286;10.788;2023-08-24T16:20:41;4.97;;;4.57;;
3337;SDS011;1682;49.286;10.788;2023-08-24T16:23:29;11.07;;;6.00;;
3337;SDS011;1682;49.286;10.788;2023-08-24T16:26:16;7.00;;;4.80;;
3337;SDS011;1682;49.286;10.788;2023-08-24T16:29:04;7.03;;;5.07;;
3337;SDS011;1682;49.286;10.788;2023-08-24T16:31:52;5.83;;;4.63;;
3337;SDS011;1682;49.286;10.788;2023-08-24T16:34:39;4.53;;;4.13;;
3337;SDS011;1682;49.286;10.788;2023-08-24T16:37:28;6.37;;;4.90;;
3337;SDS011;1682;49.286;10.788;2023-08-24T16:40:16;11.80;;;4.97;;
3337;SDS011;1682;49.286;10.788;2023-08-24T16:43:03;6.47;;;4.47;;
3337;SDS011;1682;49.286;10.788;2023-08-24T16:45:51;12.43;;;5.37;;
3337;SDS011;1682;49.286;10.788;2023-08-24T16:48:38;11.90;;;5.70;;
3337;SDS011;1682;49.286;10.788;2023-08-24T16:51:26;7.60;;;4.67;;
3337;SDS011;1682;49.286;10.788;2023-08-24T16:54:14;7.37;;;5.10;;
3337;SDS011;1682;49.286;10.788;2023-08-24T16:57:02;9.80;;;6.40;;
3337;SDS011;1682;49.286;10.788;2023-08-24T16:59:50;9.43;;;7.10;;
3337;SDS011;1682;49.286;10.788;2023-08-24T17:02:37;8.23;;;6.37;;
3337;SDS011;1682;49.286;10.788;2023-08-24T17:05:25;7.87;;;6.97;;
3337;SDS011;1682;49.286;10.788;2023-08-24T17:08:13;11.67;;;8.60;;